Time;durP1;ratioP1;P1;durP2;ratioP2;P2;SDS_P1;SDS_P2;PMS_P1;PMS_P2;Temp;Humidity;BMP_temperature;BMP_pressure;BME280_temperature;BME280_humidity;BME280_pressure;Samples;Min_cycle;Max_cycle;Signal;HPM_P1;HPM_P2
2021/07/11 04:01:15;;;;;;;11.93;10.87;;;17.20;99.90;;;;;;5627583;23;20539;-69
2021/07/11 04:03:43;;;;;;;11.70;10.60;;;17.20;99.90;;;;;;4983824;28;20459;-70
2021/07/11 04:06:11;;;;;;;11.23;10.23;;;17.30;99.90;;;;;;4986934;28;22354;-70
2021/07/11 04:08:40;;;;;;;10.80;9.90;;;17.30;99.90;;;;;;4985964;28;20553;-70
2021/07/11 04:11:07;;;;;;;10.90;10.10;;;17.40;99.90;;;;;;4984976;28;20538;-70
2021/07/11 04:13:35;;;;;;;11.83;10.87;;;17.50;99.90;;;;;;4972033;28;20487;-70
2021/07/11 04:16:05;;;;;;;10.23;9.33;;;17.50;99.90;;;;;;4979769;28;20550;-70
2021/07/11 04:18:38;;;;;;;10.37;9.57;;;17.50;99.90;;;;;;4966809;28;20479;-70
2021/07/11 04:21:06;;;;;;;10.73;9.83;;;17.70;99.90;;;;;;4971587;28;20484;-69
2021/07/11 04:23:34;;;;;;;11.67;10.67;;;17.70;99.90;;;;;;4968892;28;20550;-69
2021/07/11 04:26:01;;;;;;;10.53;9.73;;;17.70;99.90;;;;;;4979746;28;20464;-69
2021/07/11 04:28:30;;;;;;;11.30;10.20;;;17.70;99.90;;;;;;4971462;28;20503;-70
2021/07/11 04:30:59;;;;;;;10.93;10.03;;;17.80;99.90;;;;;;4974918;28;21900;-70
2021/07/11 04:33:26;;;;;;;11.10;10.20;;;18.00;99.90;;;;;;4974019;28;20509;-70
2021/07/11 04:35:54;;;;;;;10.97;10.13;;;18.00;99.90;;;;;;4991342;28;20537;-70
2021/07/11 04:38:20;;;;;;;9.67;8.97;;;18.20;99.90;;;;;;4972743;28;20471;-70
2021/07/11 04:40:47;;;;;;;10.10;9.40;;;18.30;99.90;;;;;;4992541;28;20551;-69
2021/07/11 04:43:16;;;;;;;10.90;9.80;;;18.60;99.90;;;;;;4963700;28;20518;-69
2021/07/11 04:45:43;;;;;;;9.00;8.40;;;18.70;99.90;;;;;;4974166;28;20475;-70
2021/07/11 04:48:10;;;;;;;9.13;8.47;;;19.00;99.90;;;;;;4979726;28;20471;-70
2021/07/11 04:50:37;;;;;;;10.00;9.07;;;19.60;99.90;;;;;;4973834;28;20480;-70
2021/07/11 04:53:05;;;;;;;9.13;8.43;;;20.10;99.90;;;;;;4972960;28;20476;-70
2021/07/11 04:55:32;;;;;;;9.27;8.37;;;20.50;99.90;;;;;;4974910;28;20490;-69
2021/07/11 04:57:59;;;;;;;9.20;8.60;;;20.80;99.90;;;;;;4980257;28;20483;-70
2021/07/11 05:00:25;;;;;;;8.00;7.40;;;20.80;99.90;;;;;;4970637;28;20518;-69
2021/07/11 05:02:52;;;;;;;9.33;8.80;;;20.70;99.90;;;;;;4964198;28;20471;-70
2021/07/11 05:05:18;;;;;;;8.90;8.10;;;20.50;99.90;;;;;;4972671;28;20522;-70
2021/07/11 05:07:45;;;;;;;10.03;8.67;;;20.40;99.90;;;;;;4976241;28;20480;-70
2021/07/11 05:10:13;;;;;;;9.83;8.83;;;20.30;99.90;;;;;;4973297;28;20467;-72
2021/07/11 05:12:41;;;;;;;10.00;9.23;;;20.30;99.90;;;;;;4980035;28;20464;-69
2021/07/11 05:15:09;;;;;;;9.07;8.53;;;20.10;99.90;;;;;;4973517;28;20471;-69
2021/07/11 05:17:35;;;;;;;10.00;9.30;;;20.00;99.90;;;;;;4976692;28;22460;-69
2021/07/11 05:20:03;;;;;;;10.67;9.77;;;19.90;99.90;;;;;;4975199;28;20463;-69
2021/07/11 05:22:30;;;;;;;9.73;8.93;;;19.80;99.90;;;;;;4985349;28;20540;-68
2021/07/11 05:24:57;;;;;;;9.93;9.27;;;19.80;99.90;;;;;;4980766;28;20463;-70
2021/07/11 05:27:27;;;;;;;9.93;9.33;;;19.80;99.90;;;;;;4979202;28;20463;-69
2021/07/11 05:29:53;;;;;;;10.10;9.40;;;19.80;99.90;;;;;;4980692;28;20617;-70
2021/07/11 05:32:20;;;;;;;9.80;9.00;;;19.80;99.90;;;;;;4986182;28;20487;-71
2021/07/11 05:34:47;;;;;;;10.57;8.30;;;19.80;99.90;;;;;;4975351;28;20507;-71
2021/07/11 05:37:13;;;;;;;10.50;9.70;;;19.80;99.90;;;;;;4982773;28;20542;-70
2021/07/11 05:39:40;;;;;;;10.00;9.30;;;19.70;99.90;;;;;;4975988;28;20463;-70
2021/07/11 05:42:06;;;;;;;9.40;8.80;;;19.60;99.90;;;;;;4977992;28;20947;-69
2021/07/11 05:44:34;;;;;;;10.43;9.60;;;19.50;99.90;;;;;;4989317;28;20513;-70
2021/07/11 05:47:01;;;;;;;11.37;10.50;;;19.50;99.90;;;;;;4991628;28;21244;-70
2021/07/11 05:49:28;;;;;;;10.33;9.63;;;19.50;99.90;;;;;;4981482;28;20828;-70
2021/07/11 05:51:54;;;;;;;11.57;10.57;;;19.50;99.90;;;;;;4996113;28;20489;-70
2021/07/11 05:54:21;;;;;;;10.13;9.40;;;19.50;99.90;;;;;;4982854;28;20462;-69
2021/07/11 05:56:48;;;;;;;11.73;10.80;;;19.50;99.90;;;;;;4983508;28;20979;-68
2021/07/11 05:59:14;;;;;;;10.17;9.27;;;19.50;99.90;;;;;;4976820;28;20482;-70
2021/07/11 06:01:42;;;;;;;9.37;8.77;;;19.50;99.90;;;;;;4980531;28;20495;-69
2021/07/11 06:04:09;;;;;;;10.00;9.20;;;19.60;99.90;;;;;;4974670;28;20517;-70
2021/07/11 06:06:36;;;;;;;9.73;9.00;;;19.70;99.90;;;;;;4988885;28;20478;-70
2021/07/11 06:09:02;;;;;;;9.60;8.87;;;19.70;99.90;;;;;;4979953;28;20468;-70
2021/07/11 06:11:29;;;;;;;8.67;8.10;;;19.70;99.90;;;;;;4994421;28;20518;-69
2021/07/11 06:13:55;;;;;;;8.80;8.20;;;19.90;99.90;;;;;;4986043;28;20471;-70
2021/07/11 06:16:22;;;;;;;9.40;8.80;;;19.90;99.90;;;;;;4995155;28;20458;-70
2021/07/11 06:18:50;;;;;;;9.40;8.60;;;20.10;99.90;;;;;;4978421;28;20975;-70
2021/07/11 06:21:17;;;;;;;9.73;9.20;;;20.20;99.90;;;;;;4983209;28;20566;-70
2021/07/11 06:23:44;;;;;;;9.60;8.90;;;20.30;99.90;;;;;;4972732;28;20963;-69
2021/07/11 06:26:10;;;;;;;9.77;9.17;;;20.40;99.90;;;;;;4984548;28;20853;-68
2021/07/11 06:28:37;;;;;;;9.23;8.40;;;20.40;99.90;;;;;;4973642;28;20475;-69
2021/07/11 06:31:04;;;;;;;9.50;8.80;;;20.60;99.90;;;;;;4978662;28;20971;-69
2021/07/11 06:33:30;;;;;;;9.07;8.40;;;20.60;99.90;;;;;;4969022;28;20944;-69
2021/07/11 06:35:58;;;;;;;9.60;8.90;;;20.70;99.90;;;;;;4982736;28;20957;-69
2021/07/11 06:38:25;;;;;;;9.17;8.43;;;20.70;99.90;;;;;;4973827;28;20488;-69
2021/07/11 06:40:52;;;;;;;11.00;10.03;;;20.70;99.90;;;;;;4978584;28;20492;-70
2021/07/11 06:43:18;;;;;;;9.40;8.80;;;20.80;99.90;;;;;;4974945;28;20949;-70
2021/07/11 06:45:45;;;;;;;9.60;8.90;;;20.90;99.90;;;;;;4978919;28;20514;-70
2021/07/11 06:48:11;;;;;;;9.10;8.20;;;21.00;99.90;;;;;;4956542;28;20465;-70
2021/07/11 06:50:42;;;;;;;9.43;8.60;;;21.30;99.90;;;;;;4973958;28;20610;-66
2021/07/11 06:53:10;;;;;;;7.50;7.07;;;21.70;99.90;;;;;;4973813;28;20492;-69
2021/07/11 06:55:37;;;;;;;8.13;7.57;;;22.00;99.90;;;;;;4976331;28;20463;-68
2021/07/11 06:58:04;;;;;;;9.37;8.87;;;22.30;99.90;;;;;;4974710;28;20823;-69
2021/07/11 07:00:30;;;;;;;8.33;7.87;;;22.30;99.90;;;;;;4975203;28;20503;-69
2021/07/11 07:02:57;;;;;;;8.50;8.03;;;22.30;99.90;;;;;;4974613;28;20519;-69
2021/07/11 07:05:25;;;;;;;7.70;7.27;;;22.20;99.90;;;;;;4975249;28;20511;-69
2021/07/11 07:07:52;;;;;;;8.27;7.77;;;22.30;99.90;;;;;;4973747;28;20979;-68
2021/07/11 07:10:20;;;;;;;8.00;7.50;;;22.40;99.90;;;;;;4975201;28;20519;-68
2021/07/11 07:12:46;;;;;;;8.23;7.70;;;22.50;99.90;;;;;;4974394;28;20494;-69
2021/07/11 07:15:14;;;;;;;7.50;7.10;;;22.60;99.90;;;;;;4975897;28;20452;-69
2021/07/11 07:17:40;;;;;;;8.50;7.80;;;22.70;99.90;;;;;;4973972;28;20545;-69
2021/07/11 07:20:09;;;;;;;8.27;7.77;;;22.80;99.90;;;;;;4973457;28;20466;-69
2021/07/11 07:22:37;;;;;;;9.47;8.57;;;22.60;99.90;;;;;;4993330;28;20466;-70
2021/07/11 07:25:04;;;;;;;8.57;7.90;;;22.50;99.90;;;;;;4988731;28;20468;-70
2021/07/11 07:27:32;;;;;;;8.63;8.03;;;22.30;99.90;;;;;;4974894;28;20463;-69
2021/07/11 07:29:58;;;;;;;7.97;7.47;;;22.30;99.90;;;;;;4976412;28;20467;-69
2021/07/11 07:32:25;;;;;;;9.43;8.70;;;22.30;99.90;;;;;;4975211;28;20479;-69
2021/07/11 07:34:52;;;;;;;9.10;8.50;;;22.40;99.90;;;;;;4975891;28;20493;-69
2021/07/11 07:37:18;;;;;;;8.57;8.07;;;22.50;99.90;;;;;;4974498;28;20483;-69
2021/07/11 07:39:45;;;;;;;8.47;7.87;;;22.50;99.90;;;;;;4988980;28;20468;-69
2021/07/11 07:42:12;;;;;;;8.23;7.63;;;22.50;99.90;;;;;;4974017;28;20492;-68
2021/07/11 07:44:40;;;;;;;7.90;7.50;;;22.50;99.90;;;;;;4987399;28;20909;-69
2021/07/11 07:47:08;;;;;;;9.03;8.43;;;22.50;99.90;;;;;;4993993;28;20466;-67
2021/07/11 07:49:34;;;;;;;8.47;7.83;;;22.40;99.90;;;;;;4975268;28;20463;-69
2021/07/11 07:52:01;;;;;;;8.23;7.73;;;22.40;99.90;;;;;;4993202;28;20645;-69
2021/07/11 07:54:28;;;;;;;9.47;8.73;;;22.40;99.90;;;;;;4986943;28;20524;-70
2021/07/11 07:56:54;;;;;;;8.60;8.10;;;22.40;99.90;;;;;;4988058;28;20464;-70
2021/07/11 07:59:21;;;;;;;9.33;8.60;;;22.50;99.90;;;;;;4973768;28;20574;-67
2021/07/11 08:01:49;;;;;;;8.60;8.20;;;22.60;99.90;;;;;;4987330;28;20565;-67
2021/07/11 08:04:20;;;;;;;9.10;8.50;;;22.50;99.90;;;;;;4978084;28;20525;-67
2021/07/11 08:06:47;;;;;;;8.83;8.23;;;22.50;99.90;;;;;;4975765;28;20478;-66
2021/07/11 08:09:14;;;;;;;8.50;8.03;;;22.40;99.90;;;;;;4979449;28;20566;-67
2021/07/11 08:11:40;;;;;;;9.00;8.50;;;22.50;99.90;;;;;;4992218;28;20483;-67
2021/07/11 08:14:07;;;;;;;8.80;8.17;;;22.70;99.90;;;;;;4977712;28;20958;-67
2021/07/11 08:16:33;;;;;;;9.40;8.60;;;22.70;99.90;;;;;;4992968;28;20541;-67
2021/07/11 08:19:01;;;;;;;7.30;6.90;;;22.80;99.90;;;;;;4992055;28;20954;-67
2021/07/11 08:21:29;;;;;;;8.70;8.20;;;22.80;99.90;;;;;;4984578;28;21038;-67
2021/07/11 08:23:55;;;;;;;8.27;7.70;;;22.90;99.90;;;;;;4960122;28;20872;-67
2021/07/11 08:26:22;;;;;;;8.30;7.90;;;23.00;99.90;;;;;;4975871;28;20456;-69
2021/07/11 08:28:49;;;;;;;8.47;7.90;;;23.10;99.90;;;;;;4991239;28;20467;-67
2021/07/11 08:31:16;;;;;;;8.83;8.30;;;23.10;99.90;;;;;;4983236;28;20482;-67
2021/07/11 08:33:42;;;;;;;8.70;8.10;;;23.00;99.90;;;;;;4973347;28;20510;-67
2021/07/11 08:36:10;;;;;;;8.67;7.87;;;23.10;99.90;;;;;;4973681;28;20522;-67
2021/07/11 08:38:37;;;;;;;8.53;8.03;;;23.00;99.90;;;;;;4979404;28;20484;-66
2021/07/11 08:41:04;;;;;;;8.67;8.10;;;22.90;99.90;;;;;;4973196;28;20968;-67
2021/07/11 08:43:30;;;;;;;8.80;8.20;;;22.90;99.90;;;;;;4978597;28;20518;-67
2021/07/11 08:45:57;;;;;;;8.70;8.20;;;23.00;99.90;;;;;;4972657;28;20575;-69
2021/07/11 08:48:24;;;;;;;8.37;7.87;;;23.20;99.90;;;;;;4977201;28;20459;-69
2021/07/11 08:50:50;;;;;;;9.00;8.20;;;23.30;99.90;;;;;;4992438;28;20483;-69
2021/07/11 08:53:19;;;;;;;8.73;8.13;;;23.50;99.90;;;;;;4979113;28;20959;-69
2021/07/11 08:55:46;;;;;;;8.50;7.37;;;23.60;99.90;;;;;;4974808;28;20848;-69
2021/07/11 08:58:15;;;;;;;9.20;8.70;;;23.60;99.90;;;;;;4979193;28;20515;-69
2021/07/11 09:00:42;;;;;;;8.13;7.63;;;23.70;99.90;;;;;;4977162;28;20523;-69
2021/07/11 09:03:09;;;;;;;9.27;8.57;;;23.80;99.90;;;;;;4979115;28;20949;-69
2021/07/11 09:05:39;;;;;;;8.77;8.27;;;23.60;99.90;;;;;;4977271;28;20471;-69
2021/07/11 09:08:08;;;;;;;8.00;7.53;;;23.70;99.90;;;;;;4978178;28;20563;-69
2021/07/11 09:10:39;;;;;;;8.43;7.73;;;23.90;99.90;;;;;;4976601;28;20483;-69
2021/07/11 09:13:12;;;;;;;9.20;8.57;;;24.30;99.90;;;;;;4978675;28;20522;-69
2021/07/11 09:15:40;;;;;;;7.20;6.80;;;24.80;99.90;;;;;;4977109;28;20464;-69
2021/07/11 09:18:06;;;;;;;7.93;7.30;;;25.00;99.90;;;;;;4977736;28;20541;-69
2021/07/11 09:20:48;;;;;;;8.20;7.67;;;25.10;99.90;;;;;;4976490;28;20491;-69
2021/07/11 09:23:14;;;;;;;8.13;7.73;;;25.60;99.90;;;;;;4976545;28;20460;-70
2021/07/11 09:25:42;;;;;;;7.67;7.27;;;25.70;99.90;;;;;;4976569;28;20825;-69
2021/07/11 09:28:12;;;;;;;7.30;6.90;;;25.70;99.90;;;;;;4982119;28;20963;-69
2021/07/11 09:30:39;;;;;;;8.20;7.73;;;25.70;99.90;;;;;;4996221;28;20903;-69
2021/07/11 09:33:05;;;;;;;9.03;8.60;;;25.30;99.90;;;;;;4992190;28;20472;-69
2021/07/11 09:35:32;;;;;;;8.20;7.80;;;25.30;99.90;;;;;;4986367;28;20459;-69
2021/07/11 09:37:59;;;;;;;8.90;8.50;;;25.30;99.90;;;;;;4989061;28;20506;-68
2021/07/11 09:40:27;;;;;;;8.60;8.10;;;25.10;99.90;;;;;;4976673;28;20987;-69
2021/07/11 09:42:56;;;;;;;8.73;8.00;;;25.20;99.90;;;;;;4977189;28;20491;-68
2021/07/11 09:45:26;;;;;;;7.80;7.30;;;25.30;99.90;;;;;;4988795;28;20545;-68
2021/07/11 09:47:57;;;;;;;9.20;8.53;;;25.50;99.90;;;;;;4994614;28;20832;-68
2021/07/11 09:50:25;;;;;;;9.10;8.60;;;25.60;99.90;;;;;;4989753;28;20513;-68
2021/07/11 09:52:54;;;;;;;8.17;7.67;;;25.80;99.90;;;;;;4977365;28;20458;-68
2021/07/11 09:55:22;;;;;;;8.33;7.67;;;25.70;99.90;;;;;;4974007;28;20487;-68
2021/07/11 09:57:51;;;;;;;8.10;7.60;;;25.70;99.90;;;;;;4975578;28;20464;-68
2021/07/11 10:00:23;;;;;;;7.87;7.47;;;25.80;99.90;;;;;;4975510;28;20460;-68
2021/07/11 10:02:52;;;;;;;7.83;7.33;;;25.80;99.90;;;;;;4975467;28;20514;-68
2021/07/11 10:05:20;;;;;;;8.83;8.10;;;25.80;99.90;;;;;;4975620;28;20463;-68
2021/07/11 10:07:48;;;;;;;8.97;7.67;;;26.00;99.90;;;;;;4973141;28;20476;-68
2021/07/11 10:10:17;;;;;;;8.97;8.43;;;26.10;99.90;;;;;;4975771;28;20467;-68
2021/07/11 10:12:45;;;;;;;8.67;8.03;;;26.10;99.90;;;;;;4973904;28;20476;-68
2021/07/11 10:15:14;;;;;;;8.20;7.80;;;26.20;99.90;;;;;;4972373;28;20480;-69
2021/07/11 10:17:46;;;;;;;7.07;6.77;;;26.30;99.90;;;;;;4970320;28;20475;-69
2021/07/11 10:20:15;;;;;;;8.27;7.60;;;26.40;99.90;;;;;;4971813;28;20464;-69
2021/07/11 10:22:45;;;;;;;8.10;7.60;;;26.30;99.90;;;;;;4969879;28;20459;-69
2021/07/11 10:25:17;;;;;;;8.50;8.00;;;26.30;99.90;;;;;;4974978;28;20482;-69
2021/07/11 10:27:44;;;;;;;8.10;7.70;;;26.40;99.90;;;;;;4975025;28;20798;-69
2021/07/11 10:30:12;;;;;;;7.30;6.87;;;26.40;99.90;;;;;;4974929;28;20476;-69
2021/07/11 10:32:39;;;;;;;8.10;7.70;;;26.60;99.90;;;;;;4975025;28;20828;-69
2021/07/11 10:35:13;;;;;;;8.97;8.37;;;26.70;99.90;;;;;;4975618;28;20459;-69
2021/07/11 10:37:48;;;;;;;8.20;7.70;;;26.80;99.90;;;;;;4981721;28;20464;-70
2021/07/11 10:40:18;;;;;;;9.07;8.57;;;26.80;99.90;;;;;;4977667;28;20502;-69
2021/07/11 10:42:45;;;;;;;9.20;8.77;;;26.90;99.90;;;;;;4975796;28;20476;-69
2021/07/11 10:45:14;;;;;;;8.17;7.50;;;27.00;99.90;;;;;;4980754;28;20603;-69
2021/07/11 10:47:41;;;;;;;8.30;7.80;;;27.20;99.90;;;;;;4977042;28;20513;-70
2021/07/11 10:50:23;;;;;;;8.47;7.97;;;27.30;99.90;;;;;;4981715;28;20805;-69
2021/07/11 10:52:50;;;;;;;8.60;8.00;;;27.30;99.90;;;;;;4989642;28;20950;-69
2021/07/11 10:55:17;;;;;;;9.23;8.53;;;27.40;99.90;;;;;;4975108;28;20483;-69
2021/07/11 10:57:44;;;;;;;8.47;8.03;;;27.60;99.90;;;;;;4977555;28;20458;-69
2021/07/11 11:00:14;;;;;;;7.70;7.40;;;27.80;99.90;;;;;;4980335;28;20551;-70
2021/07/11 11:02:41;;;;;;;8.47;7.87;;;28.00;99.90;;;;;;4993194;28;20477;-69
2021/07/11 11:05:12;;;;;;;8.73;8.33;;;28.10;99.90;;;;;;4988433;28;20466;-69
2021/07/11 11:07:43;;;;;;;7.60;7.27;;;28.20;99.90;;;;;;4983549;28;20852;-70
2021/07/11 11:10:27;;;;;;;7.30;7.00;;;28.10;99.90;;;;;;4955657;28;20527;-70
2021/07/11 11:13:12;;;;;;;8.27;7.87;;;27.90;99.90;;;;;;4982288;28;20462;-70
2021/07/11 11:15:42;;;;;;;8.00;7.60;;;27.80;99.90;;;;;;4977673;28;20592;-69
2021/07/11 11:18:23;;;;;;;8.30;7.60;;;27.70;99.90;;;;;;4974581;28;20470;-66
2021/07/11 11:20:58;;;;;;;7.10;6.83;;;27.70;99.90;;;;;;4974553;28;20487;-66
2021/07/11 11:23:26;;;;;;;6.97;6.77;;;27.50;99.90;;;;;;4973396;28;20801;-66
2021/07/11 11:25:54;;;;;;;7.50;7.10;;;27.40;99.90;;;;;;4974287;28;20467;-67
2021/07/11 11:28:32;;;;;;;7.70;7.40;;;27.20;99.90;;;;;;4989136;28;20952;-66
2021/07/11 11:31:16;;;;;;;7.10;6.80;;;27.20;99.90;;;;;;4994002;28;20539;-66
2021/07/11 11:33:51;;;;;;;7.23;6.90;;;27.10;99.90;;;;;;4993563;28;20513;-66
2021/07/11 11:36:24;;;;;;;7.23;6.93;;;27.10;99.90;;;;;;4981362;28;20471;-66
2021/07/11 11:38:51;;;;;;;6.90;6.70;;;27.10;99.90;;;;;;4991014;28;20913;-66
2021/07/11 11:41:21;;;;;;;7.30;7.00;;;27.10;99.90;;;;;;4979427;28;20480;-66
2021/07/11 11:43:48;;;;;;;8.17;7.67;;;27.10;99.90;;;;;;4973798;28;20461;-66
2021/07/11 11:46:31;;;;;;;6.93;6.53;;;27.10;99.90;;;;;;4974166;28;20468;-67
2021/07/11 11:49:00;;;;;;;5.83;5.73;;;27.10;99.90;;;;;;4972016;28;20475;-67
2021/07/11 11:51:28;;;;;;;6.87;6.57;;;27.10;99.90;;;;;;4974283;28;20562;-67
2021/07/11 11:53:55;;;;;;;6.87;6.60;;;27.20;99.90;;;;;;4973116;28;20463;-67
2021/07/11 11:56:22;;;;;;;7.27;6.93;;;27.40;99.90;;;;;;4974094;28;20522;-67
2021/07/11 11:58:49;;;;;;;7.20;6.80;;;27.60;99.90;;;;;;4991536;28;20955;-67
2021/07/11 12:01:18;;;;;;;6.87;6.47;;;27.70;99.90;;;;;;4993686;28;20496;-67
2021/07/11 12:03:45;;;;;;;5.80;5.60;;;28.00;99.90;;;;;;4992938;28;20668;-71
2021/07/11 12:06:15;;;;;;;6.53;6.13;;;28.20;99.90;;;;;;4993587;28;20461;-70
2021/07/11 12:08:44;;;;;;;6.30;6.10;;;28.40;99.90;;;;;;4962108;28;20621;-70
2021/07/11 12:11:12;;;;;;;6.10;5.90;;;28.70;99.90;;;;;;4954351;28;20609;-70
2021/07/11 12:13:40;;;;;;;6.20;6.00;;;28.70;99.90;;;;;;4954243;29;20526;-70
2021/07/11 12:16:09;;;;;;;6.53;6.27;;;28.60;99.90;;;;;;4974184;28;20466;-67
2021/07/11 12:18:47;;;;;;;6.07;5.97;;;28.40;99.90;;;;;;4988320;28;20470;-67
2021/07/11 12:21:20;;;;;;;5.80;5.60;;;28.40;99.90;;;;;;4989276;28;20489;-67
2021/07/11 12:23:58;;;;;;;5.40;5.30;;;28.30;99.90;;;;;;4991842;28;20482;-66
2021/07/11 12:26:27;;;;;;;6.07;5.90;;;28.30;99.90;;;;;;4981530;28;20956;-67
2021/07/11 12:28:54;;;;;;;6.10;5.80;;;28.30;99.90;;;;;;4973349;28;20492;-68
2021/07/11 12:31:22;;;;;;;6.33;6.10;;;28.20;99.90;;;;;;4973143;28;20587;-67
2021/07/11 12:33:55;;;;;;;6.80;6.50;;;28.10;99.90;;;;;;4973333;28;20929;-67
2021/07/11 12:36:22;;;;;;;6.30;6.00;;;28.00;99.90;;;;;;4983366;28;20527;-67
2021/07/11 12:38:49;;;;;;;6.40;6.20;;;28.00;99.90;;;;;;4992101;28;20535;-67
2021/07/11 12:41:17;;;;;;;6.27;6.07;;;28.10;99.90;;;;;;4992689;28;20486;-67
2021/07/11 12:43:48;;;;;;;6.10;5.73;;;28.10;99.90;;;;;;4992800;28;20528;-67
2021/07/11 12:46:17;;;;;;;6.70;6.50;;;28.20;99.90;;;;;;4980468;28;20474;-67
2021/07/11 12:48:46;;;;;;;6.63;6.40;;;28.20;99.90;;;;;;4958516;28;20956;-67
2021/07/11 12:51:14;;;;;;;6.17;5.97;;;28.20;99.90;;;;;;4973482;28;20499;-66
2021/07/11 12:53:40;;;;;;;5.97;5.77;;;28.10;99.90;;;;;;4972065;28;20467;-66
2021/07/11 12:56:07;;;;;;;6.23;6.03;;;28.00;99.90;;;;;;4981122;28;20466;-66
2021/07/11 12:58:42;;;;;;;6.60;6.30;;;27.90;99.90;;;;;;4979701;28;20494;-66
2021/07/11 13:01:09;;;;;;;6.60;6.30;;;27.90;99.90;;;;;;4988669;28;20483;-67
2021/07/11 13:03:36;;;;;;;6.70;6.50;;;27.90;99.90;;;;;;4972944;28;20895;-67
2021/07/11 13:06:04;;;;;;;6.60;6.30;;;27.90;99.90;;;;;;4982996;28;20528;-68
2021/07/11 13:08:30;;;;;;;6.70;6.30;;;28.00;99.90;;;;;;4972361;28;20476;-68
2021/07/11 13:10:58;;;;;;;5.93;5.63;;;28.00;99.90;;;;;;4988002;28;20489;-67
2021/07/11 13:13:24;;;;;;;6.60;6.30;;;28.00;99.90;;;;;;4992433;28;20547;-67
2021/07/11 13:15:53;;;;;;;6.30;6.10;;;28.10;99.90;;;;;;4979783;28;20821;-67
2021/07/11 13:18:19;;;;;;;5.87;5.67;;;28.10;99.90;;;;;;4984622;28;20540;-68
2021/07/11 13:20:46;;;;;;;6.47;6.20;;;28.20;99.90;;;;;;4991934;28;20496;-65
2021/07/11 13:23:13;;;;;;;6.80;6.50;;;28.20;99.90;;;;;;4981266;28;20486;-65
2021/07/11 13:25:42;;;;;;;6.53;6.33;;;28.10;99.90;;;;;;4976597;28;20507;-67
2021/07/11 13:28:09;;;;;;;6.87;6.50;;;28.00;99.90;;;;;;4991579;28;20814;-66
2021/07/11 13:30:36;;;;;;;6.60;6.30;;;27.80;99.90;;;;;;4992188;28;20480;-66
2021/07/11 13:33:05;;;;;;;6.50;6.30;;;27.70;99.90;;;;;;4984151;28;20476;-66
2021/07/11 13:35:32;;;;;;;7.03;6.73;;;27.70;99.90;;;;;;4974383;28;20520;-66
2021/07/11 13:37:59;;;;;;;6.73;6.53;;;27.70;99.90;;;;;;4972700;28;20539;-66
2021/07/11 13:40:25;;;;;;;6.30;6.00;;;27.60;99.90;;;;;;4986296;28;20558;-66
2021/07/11 13:42:52;;;;;;;7.27;6.87;;;27.60;99.90;;;;;;4988613;28;20519;-66
2021/07/11 13:45:21;;;;;;;6.10;5.90;;;27.50;99.90;;;;;;4972043;28;20460;-66
2021/07/11 13:47:49;;;;;;;6.90;6.60;;;27.60;99.90;;;;;;4976008;28;20564;-66
2021/07/11 13:50:19;;;;;;;7.10;6.80;;;27.70;99.90;;;;;;4976333;28;20456;-66
2021/07/11 13:52:47;;;;;;;6.53;6.33;;;27.70;99.90;;;;;;4975078;28;20592;-66
2021/07/11 13:55:18;;;;;;;6.50;6.00;;;27.70;99.90;;;;;;4975975;28;20461;-67
2021/07/11 13:57:45;;;;;;;7.00;6.67;;;27.80;99.90;;;;;;4976104;28;20844;-66
2021/07/11 14:00:12;;;;;;;6.13;5.97;;;28.00;99.90;;;;;;4975585;28;20604;-66
2021/07/11 14:02:39;;;;;;;5.80;5.70;;;28.20;99.90;;;;;;4959542;28;20542;-66
2021/07/11 14:05:07;;;;;;;5.83;5.63;;;28.30;99.90;;;;;;4974410;28;20474;-66
2021/07/11 14:07:35;;;;;;;6.03;5.87;;;28.40;99.90;;;;;;4970792;28;20474;-67
2021/07/11 14:10:01;;;;;;;6.97;6.67;;;28.40;99.90;;;;;;4973271;28;20465;-67
2021/07/11 14:12:28;;;;;;;5.83;5.70;;;28.50;99.90;;;;;;4975247;28;20494;-67
2021/07/11 14:14:55;;;;;;;5.90;5.70;;;28.40;99.90;;;;;;4975316;28;20536;-67
2021/07/11 14:17:22;;;;;;;6.30;6.00;;;28.20;99.90;;;;;;4975467;28;20640;-66
2021/07/11 14:19:48;;;;;;;6.47;6.17;;;28.00;99.90;;;;;;4975203;28;20625;-66
2021/07/11 14:22:15;;;;;;;5.93;5.73;;;27.80;99.90;;;;;;4974265;28;22093;-67
2021/07/11 14:24:43;;;;;;;6.20;6.00;;;27.70;99.90;;;;;;4974941;28;20483;-69
2021/07/11 14:27:10;;;;;;;6.53;6.23;;;27.60;99.90;;;;;;4974733;28;20476;-67
2021/07/11 14:29:37;;;;;;;6.47;6.17;;;27.50;99.90;;;;;;4975165;28;20463;-66
2021/07/11 14:32:04;;;;;;;5.93;5.73;;;27.30;99.90;;;;;;4975196;28;20619;-68
2021/07/11 14:34:31;;;;;;;7.07;6.57;;;27.30;99.90;;;;;;4974987;28;20460;-66
2021/07/11 14:36:58;;;;;;;5.77;5.67;;;27.20;99.90;;;;;;4975159;28;20530;-68
2021/07/11 14:39:25;;;;;;;5.97;5.77;;;27.30;99.90;;;;;;4972836;28;20494;-67
2021/07/11 14:41:53;;;;;;;5.60;5.40;;;27.30;99.90;;;;;;4974127;28;20846;-67
2021/07/11 14:44:20;;;;;;;6.33;6.13;;;27.30;99.90;;;;;;4973861;28;20952;-67
2021/07/11 14:46:46;;;;;;;6.00;5.80;;;27.30;99.90;;;;;;4969504;28;20479;-67
2021/07/11 14:49:13;;;;;;;5.63;5.47;;;27.40;99.90;;;;;;4973871;28;20457;-67
2021/07/11 14:51:40;;;;;;;6.20;6.00;;;27.50;99.90;;;;;;4974216;28;20489;-67
2021/07/11 14:54:06;;;;;;;6.10;5.87;;;27.50;99.90;;;;;;4972761;28;20460;-67
2021/07/11 14:56:34;;;;;;;6.13;5.77;;;27.50;99.90;;;;;;4974033;28;20481;-66
2021/07/11 14:59:02;;;;;;;5.77;5.57;;;27.50;99.90;;;;;;4974672;28;20973;-67
2021/07/11 15:01:28;;;;;;;5.67;5.40;;;27.50;99.90;;;;;;4974169;28;20493;-67
2021/07/11 15:03:55;;;;;;;5.43;5.27;;;27.60;99.90;;;;;;4974453;28;20465;-67
2021/07/11 15:06:22;;;;;;;6.00;5.80;;;27.60;99.90;;;;;;4973946;28;20484;-68
2021/07/11 15:08:48;;;;;;;6.00;5.70;;;27.70;99.90;;;;;;4971203;28;20577;-67
2021/07/11 15:11:15;;;;;;;5.27;5.17;;;27.70;99.90;;;;;;4974712;28;20564;-66
2021/07/11 15:13:42;;;;;;;5.60;5.40;;;27.60;99.90;;;;;;4974895;28;20468;-66
2021/07/11 15:16:10;;;;;;;5.17;4.97;;;27.70;99.90;;;;;;4974900;28;20478;-66
2021/07/11 15:18:38;;;;;;;5.00;4.90;;;27.60;99.90;;;;;;4974133;28;20527;-66
2021/07/11 15:21:05;;;;;;;5.40;5.17;;;27.60;99.90;;;;;;4974234;28;20492;-66
2021/07/11 15:23:32;;;;;;;5.40;5.20;;;27.70;99.90;;;;;;4973111;28;20465;-68
2021/07/11 15:26:00;;;;;;;6.30;5.80;;;27.80;99.90;;;;;;4974419;28;20538;-67
2021/07/11 15:28:27;;;;;;;6.50;5.90;;;27.50;99.90;;;;;;4973791;28;20482;-66
2021/07/11 15:30:53;;;;;;;6.77;6.40;;;26.90;99.90;;;;;;4974377;28;20650;-66
2021/07/11 15:33:21;;;;;;;6.10;5.90;;;26.90;99.90;;;;;;4973791;28;20463;-66
2021/07/11 15:35:48;;;;;;;6.13;5.83;;;26.60;99.90;;;;;;4969367;28;20953;-66
2021/07/11 15:38:15;;;;;;;7.43;7.03;;;26.30;99.90;;;;;;4967580;28;20468;-66
2021/07/11 15:40:43;;;;;;;7.50;7.10;;;26.20;99.90;;;;;;4973575;28;20557;-66
2021/07/11 15:43:11;;;;;;;7.00;6.60;;;26.10;99.90;;;;;;4973557;28;20547;-66
2021/07/11 15:45:38;;;;;;;7.60;7.10;;;26.00;99.90;;;;;;4972354;28;20495;-66
2021/07/11 15:48:06;;;;;;;7.03;6.63;;;25.90;99.90;;;;;;4972626;28;20471;-66
2021/07/11 15:50:34;;;;;;;7.10;6.80;;;25.80;99.90;;;;;;4972470;28;20515;-68
2021/07/11 15:53:00;;;;;;;6.67;6.17;;;25.80;99.90;;;;;;4971878;28;20468;-67
2021/07/11 15:55:27;;;;;;;7.33;6.80;;;25.90;99.90;;;;;;4971128;28;20475;-67
2021/07/11 15:57:54;;;;;;;7.50;7.10;;;25.80;99.90;;;;;;4972665;28;20480;-66
2021/07/11 16:00:20;;;;;;;7.43;7.03;;;25.80;99.90;;;;;;4971093;28;20488;-67
2021/07/11 16:02:48;;;;;;;8.67;8.17;;;25.60;99.90;;;;;;4968977;28;20472;-65
2021/07/11 16:05:15;;;;;;;8.50;7.90;;;24.70;99.90;;;;;;4969105;28;20474;-68
2021/07/11 16:07:43;;;;;;;9.07;8.27;;;24.30;99.90;;;;;;4966238;28;20543;-65
2021/07/11 16:10:10;;;;;;;9.00;8.40;;;23.80;99.90;;;;;;4972092;28;20451;-64
2021/07/11 16:12:38;;;;;;;9.37;8.63;;;22.40;99.90;;;;;;4972498;28;20550;-64
2021/07/11 16:15:06;;;;;;;9.63;8.83;;;21.50;99.90;;;;;;4973696;28;20464;-64
2021/07/11 16:17:33;;;;;;;10.93;10.20;;;20.80;99.90;;;;;;4973231;28;20495;-64
2021/07/11 16:20:00;;;;;;;11.00;10.20;;;20.50;99.90;;;;;;4972518;28;20502;-64
2021/07/11 16:22:27;;;;;;;10.97;10.27;;;20.20;99.90;;;;;;4972595;28;20487;-65
2021/07/11 16:24:55;;;;;;;10.20;9.60;;;20.00;99.90;;;;;;4972420;28;20475;-64
2021/07/11 16:27:22;;;;;;;11.03;10.20;;;20.00;99.90;;;;;;4972336;28;20936;-67
2021/07/11 16:29:48;;;;;;;13.00;12.10;;;19.90;99.90;;;;;;4972821;28;20499;-68
2021/07/11 16:32:15;;;;;;;12.77;11.77;;;20.10;99.90;;;;;;4972693;28;20940;-66
2021/07/11 16:34:42;;;;;;;12.00;11.20;;;20.20;99.90;;;;;;4972702;28;20980;-66
2021/07/11 16:37:09;;;;;;;11.63;10.70;;;20.40;99.90;;;;;;4972459;28;20479;-66
2021/07/11 16:39:35;;;;;;;12.97;12.07;;;20.50;99.90;;;;;;4958819;28;20464;-67
2021/07/11 16:42:04;;;;;;;12.80;11.80;;;20.70;99.90;;;;;;4972642;28;20499;-67
2021/07/11 16:44:31;;;;;;;13.73;12.40;;;20.80;99.90;;;;;;4972083;28;20475;-66
2021/07/11 16:46:57;;;;;;;11.73;10.83;;;20.90;99.90;;;;;;4972361;28;20481;-67
2021/07/11 16:49:25;;;;;;;12.43;11.57;;;21.00;99.90;;;;;;4973142;28;20503;-67